Flagstaff Pulliam Airport Flagstaff US
ICAO: KFLG
IATA: FLG
Category: Medium
Scheduled Services: Yes

Elevation: 7014 ft
TransAlt. 18000 ft.

Airport Communications:
ATIS:125.8
ALBUQUERQUE CNTR:124.5
CTAF:134.55
GND:121.9
PRESCOTT RDO:122.3
TWR:134.55
UNICOM:122.95

KFLG Zoom In..

Runways:

(A) RW 03 length 8800 ft width 150 ft
---- / hdg 27

(B) RW 21 length 8800 ft width 150 ft
ILS 110.50 / hdg 207

Location; KFLG
Day. 14 / Time. 13.57 Zulu
* Altimeter: 30.25
* Temperature: 14° c. 57.2°f.
* Wind from: 220° Speed 04 kn.
Dewpoint: 11° c.
Visibility: 10 Statute Miles.
Clouds: Scattered 11000 ft.

KFLG 141357Z 22004KT 10SM SCT110 14/11 A3025 RMK AO2 SLP149 T01440106


Wind From 220°
Speed 04 kn.

 
 
jpsmedia.com for Web Design worldairports.se 2018   terms of use